sensor_id;sensor_type;location;lat;lon;timestamp;pressure;altitude;pressure_sealevel;temperature;humidity
37291;BME280;23175;-33.706;151.094;2022-12-26T00:00:26;100376.60;;;27.26;31.16
37291;BME280;23175;-33.706;151.094;2022-12-26T00:02:56;100374.36;;;26.91;31.75
37291;BME280;23175;-33.706;151.094;2022-12-26T00:05:26;100375.34;;;26.24;32.98
37291;BME280;23175;-33.706;151.094;2022-12-26T00:07:56;100371.96;;;26.72;30.93
37291;BME280;23175;-33.706;151.094;2022-12-26T00:10:26;100365.54;;;27.52;30.39
37291;BME280;23175;-33.706;151.094;2022-12-26T00:12:56;100367.59;;;25.41;30.68
37291;BME280;23175;-33.706;151.094;2022-12-26T00:15:26;100366.50;;;25.56;31.45
37291;BME280;23175;-33.706;151.094;2022-12-26T00:17:56;100368.72;;;26.17;31.16
37291;BME280;23175;-33.706;151.094;2022-12-26T00:20:25;100366.23;;;27.60;30.43
37291;BME280;23175;-33.706;151.094;2022-12-26T00:22:55;100366.77;;;27.96;28.41
37291;BME280;23175;-33.706;151.094;2022-12-26T00:25:25;100367.83;;;27.82;28.65
37291;BME280;23175;-33.706;151.094;2022-12-26T00:27:55;100365.38;;;26.55;28.62
37291;BME280;23175;-33.706;151.094;2022-12-26T00:30:25;100364.26;;;25.36;29.50
37291;BME280;23175;-33.706;151.094;2022-12-26T00:32:55;100361.21;;;24.08;32.80
37291;BME280;23175;-33.706;151.094;2022-12-26T00:35:26;100368.59;;;27.13;29.77
37291;BME280;23175;-33.706;151.094;2022-12-26T00:37:56;100362.71;;;27.21;28.62
37291;BME280;23175;-33.706;151.094;2022-12-26T00:40:26;100366.62;;;25.36;31.03
37291;BME280;23175;-33.706;151.094;2022-12-26T00:42:56;100361.04;;;26.75;27.46
37291;BME280;23175;-33.706;151.094;2022-12-26T00:45:25;100359.39;;;26.70;27.68
37291;BME280;23175;-33.706;151.094;2022-12-26T00:47:55;100356.98;;;25.48;28.96
37291;BME280;23175;-33.706;151.094;2022-12-26T00:50:25;100360.13;;;25.50;29.97
37291;BME280;23175;-33.706;151.094;2022-12-26T00:52:55;100351.75;;;25.75;29.20
37291;BME280;23175;-33.706;151.094;2022-12-26T00:55:25;100346.58;;;28.97;25.69
37291;BME280;23175;-33.706;151.094;2022-12-26T00:57:55;100349.28;;;25.39;29.83
37291;BME280;23175;-33.706;151.094;2022-12-26T01:00:25;100340.76;;;26.93;25.93
37291;BME280;23175;-33.706;151.094;2022-12-26T01:02:54;100341.84;;;29.38;23.99
37291;BME280;23175;-33.706;151.094;2022-12-26T01:05:25;100338.93;;;28.46;25.13
37291;BME280;23175;-33.706;151.094;2022-12-26T01:07:55;100339.45;;;26.96;27.10
37291;BME280;23175;-33.706;151.094;2022-12-26T01:10:25;100342.41;;;28.02;24.81
37291;BME280;23175;-33.706;151.094;2022-12-26T01:12:55;100336.20;;;27.50;26.36
37291;BME280;23175;-33.706;151.094;2022-12-26T01:15:25;100336.97;;;27.13;26.18
37291;BME280;23175;-33.706;151.094;2022-12-26T01:17:55;100329.75;;;27.48;25.46
37291;BME280;23175;-33.706;151.094;2022-12-26T01:20:26;100330.68;;;27.40;25.79
37291;BME280;23175;-33.706;151.094;2022-12-26T01:22:57;100323.97;;;27.96;25.56
37291;BME280;23175;-33.706;151.094;2022-12-26T01:25:26;100317.89;;;27.03;25.42
37291;BME280;23175;-33.706;151.094;2022-12-26T01:27:57;100316.89;;;28.89;25.29
37291;BME280;23175;-33.706;151.094;2022-12-26T01:30:27;100314.63;;;27.00;27.09
37291;BME280;23175;-33.706;151.094;2022-12-26T01:32:57;100310.29;;;27.28;25.83
37291;BME280;23175;-33.706;151.094;2022-12-26T01:35:27;100311.99;;;30.19;22.76
37291;BME280;23175;-33.706;151.094;2022-12-26T01:37:57;100307.71;;;29.80;22.84
37291;BME280;23175;-33.706;151.094;2022-12-26T01:40:27;100305.64;;;29.80;22.88
37291;BME280;23175;-33.706;151.094;2022-12-26T01:42:57;100299.85;;;26.70;25.77
37291;BME280;23175;-33.706;151.094;2022-12-26T01:45:28;100296.77;;;27.95;25.25
37291;BME280;23175;-33.706;151.094;2022-12-26T01:48:02;100298.08;;;28.33;23.48
37291;BME280;23175;-33.706;151.094;2022-12-26T01:50:42;100296.77;;;29.34;24.14
37291;BME280;23175;-33.706;151.094;2022-12-26T01:53:16;100287.75;;;28.94;23.64
37291;BME280;23175;-33.706;151.094;2022-12-26T01:55:50;100288.14;;;28.77;24.47
37291;BME280;23175;-33.706;151.094;2022-12-26T01:58:26;100284.96;;;26.52;27.64
37291;BME280;23175;-33.706;151.094;2022-12-26T02:00:59;100282.06;;;26.50;29.05
37291;BME280;23175;-33.706;151.094;2022-12-26T02:03:31;100287.62;;;29.75;26.04
37291;BME280;23175;-33.706;151.094;2022-12-26T02:06:02;100284.82;;;25.94;28.90
37291;BME280;23175;-33.706;151.094;2022-12-26T02:08:35;100274.66;;;27.71;27.27
37291;BME280;23175;-33.706;151.094;2022-12-26T02:11:09;100268.58;;;29.15;25.72
37291;BME280;23175;-33.706;151.094;2022-12-26T02:13:41;100273.01;;;26.82;27.47
37291;BME280;23175;-33.706;151.094;2022-12-26T02:16:15;100271.64;;;27.56;25.66
37291;BME280;23175;-33.706;151.094;2022-12-26T02:18:46;100267.70;;;29.29;25.12
37291;BME280;23175;-33.706;151.094;2022-12-26T02:23:28;100270.52;;;25.02;31.17
37291;BME280;23175;-33.706;151.094;2022-12-26T02:26:29;100263.14;;;27.60;27.54
37291;BME280;23175;-33.706;151.094;2022-12-26T02:29:28;100257.50;;;25.48;30.74
37291;BME280;23175;-33.706;151.094;2022-12-26T02:32:09;100253.55;;;25.45;32.07
37291;BME280;23175;-33.706;151.094;2022-12-26T02:34:53;100252.13;;;25.98;32.00
37291;BME280;23175;-33.706;151.094;2022-12-26T02:37:37;100249.51;;;28.62;26.50
37291;BME280;23175;-33.706;151.094;2022-12-26T02:40:34;100242.28;;;27.39;24.79
37291;BME280;23175;-33.706;151.094;2022-12-26T02:43:14;100243.75;;;27.01;27.55
37291;BME280;23175;-33.706;151.094;2022-12-26T02:45:54;100239.91;;;26.37;28.49
37291;BME280;23175;-33.706;151.094;2022-12-26T02:48:34;100248.80;;;26.65;26.62
37291;BME280;23175;-33.706;151.094;2022-12-26T02:51:22;100236.53;;;26.31;28.29
37291;BME280;23175;-33.706;151.094;2022-12-26T02:54:02;100245.62;;;27.76;25.75
37291;BME280;23175;-33.706;151.094;2022-12-26T02:56:36;100238.76;;;27.64;25.57
37291;BME280;23175;-33.706;151.094;2022-12-26T02:59:11;100237.73;;;26.28;27.23
37291;BME280;23175;-33.706;151.094;2022-12-26T03:01:46;100238.18;;;25.56;29.90
37291;BME280;23175;-33.706;151.094;2022-12-26T03:04:21;100233.65;;;27.74;27.34
37291;BME280;23175;-33.706;151.094;2022-12-26T03:06:57;100235.80;;;27.12;27.19
37291;BME280;23175;-33.706;151.094;2022-12-26T03:09:31;100230.21;;;27.74;26.22
37291;BME280;23175;-33.706;151.094;2022-12-26T03:12:06;100236.94;;;28.76;26.25
37291;BME280;23175;-33.706;151.094;2022-12-26T03:14:40;100233.86;;;26.48;26.90
37291;BME280;23175;-33.706;151.094;2022-12-26T03:17:14;100234.56;;;28.35;26.88
37291;BME280;23175;-33.706;151.094;2022-12-26T03:19:49;100232.39;;;28.04;28.09
37291;BME280;23175;-33.706;151.094;2022-12-26T03:22:21;100234.40;;;27.89;28.03
37291;BME280;23175;-33.706;151.094;2022-12-26T03:24:51;100233.88;;;27.11;28.21
37291;BME280;23175;-33.706;151.094;2022-12-26T03:27:22;100226.87;;;27.28;26.40
37291;BME280;23175;-33.706;151.094;2022-12-26T03:29:53;100232.25;;;26.58;27.63
37291;BME280;23175;-33.706;151.094;2022-12-26T03:32:23;100226.42;;;25.95;29.11
37291;BME280;23175;-33.706;151.094;2022-12-26T03:34:52;100225.13;;;26.51;28.00
37291;BME280;23175;-33.706;151.094;2022-12-26T03:37:40;100216.49;;;27.39;26.81
37291;BME280;23175;-33.706;151.094;2022-12-26T03:40:25;100223.58;;;24.89;29.97
37291;BME280;23175;-33.706;151.094;2022-12-26T03:43:05;100220.97;;;26.75;26.32
37291;BME280;23175;-33.706;151.094;2022-12-26T03:45:44;100221.64;;;27.02;27.57
37291;BME280;23175;-33.706;151.094;2022-12-26T03:48:23;100214.73;;;24.45;30.60
37291;BME280;23175;-33.706;151.094;2022-12-26T03:51:00;100209.43;;;27.42;28.01
37291;BME280;23175;-33.706;151.094;2022-12-26T03:53:36;100211.66;;;26.11;26.17
37291;BME280;23175;-33.706;151.094;2022-12-26T03:56:11;100211.23;;;25.96;28.75
37291;BME280;23175;-33.706;151.094;2022-12-26T03:58:52;100209.32;;;27.43;24.28
37291;BME280;23175;-33.706;151.094;2022-12-26T04:01:28;100214.83;;;25.20;27.67
37291;BME280;23175;-33.706;151.094;2022-12-26T04:04:00;100208.72;;;28.22;24.46
37291;BME280;23175;-33.706;151.094;2022-12-26T04:06:35;100206.78;;;26.42;27.45
37291;BME280;23175;-33.706;151.094;2022-12-26T04:09:18;100204.67;;;25.85;27.61
37291;BME280;23175;-33.706;151.094;2022-12-26T04:11:50;100215.45;;;26.14;28.41
37291;BME280;23175;-33.706;151.094;2022-12-26T04:14:33;100213.99;;;24.98;29.46
37291;BME280;23175;-33.706;151.094;2022-12-26T04:17:11;100207.92;;;25.53;29.36
37291;BME280;23175;-33.706;151.094;2022-12-26T04:20:00;100203.64;;;26.50;29.50
37291;BME280;23175;-33.706;151.094;2022-12-26T04:22:39;100202.85;;;26.37;30.02
37291;BME280;23175;-33.706;151.094;2022-12-26T04:25:15;100202.96;;;28.31;27.80
37291;BME280;23175;-33.706;151.094;2022-12-26T04:27:47;100213.59;;;25.55;30.49
37291;BME280;23175;-33.706;151.094;2022-12-26T04:30:18;100204.97;;;25.94;30.34
37291;BME280;23175;-33.706;151.094;2022-12-26T04:32:50;100203.24;;;27.64;29.32
37291;BME280;23175;-33.706;151.094;2022-12-26T04:35:29;100203.22;;;27.46;26.78
37291;BME280;23175;-33.706;151.094;2022-12-26T04:38:01;100203.22;;;26.32;27.67
37291;BME280;23175;-33.706;151.094;2022-12-26T04:40:36;100199.41;;;26.94;26.56
37291;BME280;23175;-33.706;151.094;2022-12-26T04:43:08;100201.07;;;28.16;26.15
37291;BME280;23175;-33.706;151.094;2022-12-26T04:45:39;100200.41;;;24.20;29.53
37291;BME280;23175;-33.706;151.094;2022-12-26T04:48:12;100197.21;;;25.76;26.86
37291;BME280;23175;-33.706;151.094;2022-12-26T04:50:50;100202.09;;;25.09;28.47
37291;BME280;23175;-33.706;151.094;2022-12-26T04:53:22;100193.58;;;24.49;27.60
37291;BME280;23175;-33.706;151.094;2022-12-26T04:55:51;100190.68;;;24.17;27.07
37291;BME280;23175;-33.706;151.094;2022-12-26T04:58:21;100185.20;;;25.42;25.85
37291;BME280;23175;-33.706;151.094;2022-12-26T05:00:51;100182.62;;;26.79;26.44
37291;BME280;23175;-33.706;151.094;2022-12-26T05:03:21;100182.34;;;26.64;25.25
37291;BME280;23175;-33.706;151.094;2022-12-26T05:05:52;100179.85;;;27.27;25.42
37291;BME280;23175;-33.706;151.094;2022-12-26T05:08:25;100179.60;;;24.82;29.84
37291;BME280;23175;-33.706;151.094;2022-12-26T05:10:56;100179.84;;;25.94;28.00
37291;BME280;23175;-33.706;151.094;2022-12-26T05:13:25;100174.48;;;26.67;26.15
37291;BME280;23175;-33.706;151.094;2022-12-26T05:15:55;100177.60;;;25.84;26.95
37291;BME280;23175;-33.706;151.094;2022-12-26T05:18:25;100178.39;;;27.24;25.27
37291;BME280;23175;-33.706;151.094;2022-12-26T05:20:55;100177.97;;;25.14;28.27
37291;BME280;23175;-33.706;151.094;2022-12-26T05:23:27;100171.31;;;25.56;27.50
37291;BME280;23175;-33.706;151.094;2022-12-26T05:25:57;100171.28;;;26.33;28.26
37291;BME280;23175;-33.706;151.094;2022-12-26T05:28:27;100166.61;;;25.81;28.83
37291;BME280;23175;-33.706;151.094;2022-12-26T05:30:58;100170.82;;;25.39;29.53
37291;BME280;23175;-33.706;151.094;2022-12-26T05:33:28;100171.92;;;23.93;29.14
37291;BME280;23175;-33.706;151.094;2022-12-26T05:35:58;100168.95;;;26.57;27.56
37291;BME280;23175;-33.706;151.094;2022-12-26T05:38:28;100176.56;;;25.43;27.77
37291;BME280;23175;-33.706;151.094;2022-12-26T05:40:58;100170.42;;;24.67;29.82
37291;BME280;23175;-33.706;151.094;2022-12-26T05:43:28;100169.72;;;25.05;29.43
37291;BME280;23175;-33.706;151.094;2022-12-26T05:45:58;100167.35;;;25.15;29.09
37291;BME280;23175;-33.706;151.094;2022-12-26T05:48:28;100166.26;;;24.08;30.90
37291;BME280;23175;-33.706;151.094;2022-12-26T05:50:59;100169.45;;;25.12;31.75
37291;BME280;23175;-33.706;151.094;2022-12-26T05:53:34;100173.87;;;24.94;30.41
37291;BME280;23175;-33.706;151.094;2022-12-26T05:56:05;100171.25;;;25.04;28.77
37291;BME280;23175;-33.706;151.094;2022-12-26T05:58:35;100177.69;;;25.05;29.43
37291;BME280;23175;-33.706;151.094;2022-12-26T06:01:08;100169.20;;;24.39;29.70
37291;BME280;23175;-33.706;151.094;2022-12-26T06:03:40;100162.24;;;26.26;27.97
37291;BME280;23175;-33.706;151.094;2022-12-26T06:06:11;100163.67;;;24.50;30.31
37291;BME280;23175;-33.706;151.094;2022-12-26T06:08:40;100165.73;;;26.56;26.94
37291;BME280;23175;-33.706;151.094;2022-12-26T06:11:12;100173.16;;;24.94;27.62
37291;BME280;23175;-33.706;151.094;2022-12-26T06:13:43;100165.59;;;24.70;27.50
37291;BME280;23175;-33.706;151.094;2022-12-26T06:16:15;100164.63;;;25.14;28.83
37291;BME280;23175;-33.706;151.094;2022-12-26T06:18:45;100160.14;;;26.45;27.47
37291;BME280;23175;-33.706;151.094;2022-12-26T06:21:18;100160.94;;;24.66;27.76
37291;BME280;23175;-33.706;151.094;2022-12-26T06:23:49;100154.33;;;26.36;26.88
37291;BME280;23175;-33.706;151.094;2022-12-26T06:26:19;100156.70;;;24.80;28.04
37291;BME280;23175;-33.706;151.094;2022-12-26T06:28:49;100153.34;;;24.53;28.95
37291;BME280;23175;-33.706;151.094;2022-12-26T06:31:21;100148.25;;;22.82;30.79
37291;BME280;23175;-33.706;151.094;2022-12-26T06:33:53;100152.52;;;23.24;30.13
37291;BME280;23175;-33.706;151.094;2022-12-26T06:36:25;100156.52;;;24.86;28.37
37291;BME280;23175;-33.706;151.094;2022-12-26T06:38:56;100156.73;;;24.80;28.96
37291;BME280;23175;-33.706;151.094;2022-12-26T06:41:26;100146.99;;;24.72;28.69
37291;BME280;23175;-33.706;151.094;2022-12-26T06:43:56;100146.09;;;25.11;28.86
37291;BME280;23175;-33.706;151.094;2022-12-26T06:46:26;100148.28;;;25.12;28.97
37291;BME280;23175;-33.706;151.094;2022-12-26T06:48:57;100150.93;;;24.86;28.42
37291;BME280;23175;-33.706;151.094;2022-12-26T06:51:27;100147.00;;;25.86;26.58
37291;BME280;23175;-33.706;151.094;2022-12-26T06:54:00;100157.19;;;23.84;29.71
37291;BME280;23175;-33.706;151.094;2022-12-26T06:56:31;100152.73;;;24.35;29.69
37291;BME280;23175;-33.706;151.094;2022-12-26T06:59:03;100154.61;;;26.98;26.12
37291;BME280;23175;-33.706;151.094;2022-12-26T07:01:34;100157.27;;;25.48;28.12
37291;BME280;23175;-33.706;151.094;2022-12-26T07:04:04;100156.78;;;25.43;27.52
37291;BME280;23175;-33.706;151.094;2022-12-26T07:06:36;100154.47;;;25.84;27.60
37291;BME280;23175;-33.706;151.094;2022-12-26T07:09:09;100156.88;;;24.58;28.37
37291;BME280;23175;-33.706;151.094;2022-12-26T07:11:42;100165.63;;;24.65;29.03
37291;BME280;23175;-33.706;151.094;2022-12-26T07:14:13;100165.85;;;26.66;26.89
37291;BME280;23175;-33.706;151.094;2022-12-26T07:16:44;100166.71;;;23.04;30.49
37291;BME280;23175;-33.706;151.094;2022-12-26T07:19:15;100173.42;;;26.02;28.63
37291;BME280;23175;-33.706;151.094;2022-12-26T07:21:45;100171.80;;;25.12;29.28
37291;BME280;23175;-33.706;151.094;2022-12-26T07:24:16;100179.72;;;23.38;30.18
37291;BME280;23175;-33.706;151.094;2022-12-26T07:26:47;100177.97;;;23.15;30.47
37291;BME280;23175;-33.706;151.094;2022-12-26T07:29:17;100181.48;;;24.99;28.68
37291;BME280;23175;-33.706;151.094;2022-12-26T07:31:47;100182.22;;;25.29;28.28
37291;BME280;23175;-33.706;151.094;2022-12-26T07:34:18;100186.81;;;23.07;31.06
37291;BME280;23175;-33.706;151.094;2022-12-26T07:36:47;100191.62;;;24.81;29.54
37291;BME280;23175;-33.706;151.094;2022-12-26T07:39:17;100193.95;;;24.19;29.87
37291;BME280;23175;-33.706;151.094;2022-12-26T07:41:47;100194.65;;;23.49;30.77
37291;BME280;23175;-33.706;151.094;2022-12-26T07:44:17;100192.21;;;26.37;28.24
37291;BME280;23175;-33.706;151.094;2022-12-26T07:46:47;100195.84;;;23.82;30.40
37291;BME280;23175;-33.706;151.094;2022-12-26T07:49:17;100200.66;;;23.41;31.55
37291;BME280;23175;-33.706;151.094;2022-12-26T07:51:47;100209.43;;;22.10;34.63
37291;BME280;23175;-33.706;151.094;2022-12-26T07:54:17;100212.86;;;22.07;34.83
37291;BME280;23175;-33.706;151.094;2022-12-26T07:56:47;100210.75;;;23.67;33.28
37291;BME280;23175;-33.706;151.094;2022-12-26T07:59:18;100218.47;;;24.50;32.42
37291;BME280;23175;-33.706;151.094;2022-12-26T08:01:48;100220.75;;;23.25;34.18
37291;BME280;23175;-33.706;151.094;2022-12-26T08:04:18;100224.59;;;22.59;34.36
37291;BME280;23175;-33.706;151.094;2022-12-26T08:06:48;100222.05;;;24.25;32.89
37291;BME280;23175;-33.706;151.094;2022-12-26T08:09:18;100223.84;;;23.99;32.17
37291;BME280;23175;-33.706;151.094;2022-12-26T08:11:48;100221.73;;;23.72;33.34
37291;BME280;23175;-33.706;151.094;2022-12-26T08:14:18;100227.36;;;24.66;31.35
37291;BME280;23175;-33.706;151.094;2022-12-26T08:16:47;100228.12;;;23.06;33.03
37291;BME280;23175;-33.706;151.094;2022-12-26T08:19:18;100229.53;;;21.19;33.37
37291;BME280;23175;-33.706;151.094;2022-12-26T08:21:47;100228.01;;;22.59;32.86
37291;BME280;23175;-33.706;151.094;2022-12-26T08:24:18;100229.03;;;25.57;29.85
37291;BME280;23175;-33.706;151.094;2022-12-26T08:26:48;100232.03;;;21.58;35.32
37291;BME280;23175;-33.706;151.094;2022-12-26T08:29:18;100232.95;;;21.22;35.12
37291;BME280;23175;-33.706;151.094;2022-12-26T08:31:48;100237.16;;;25.31;30.43
37291;BME280;23175;-33.706;151.094;2022-12-26T08:34:18;100236.54;;;24.90;30.64
37291;BME280;23175;-33.706;151.094;2022-12-26T08:36:50;100241.97;;;26.49;28.72
37291;BME280;23175;-33.706;151.094;2022-12-26T08:39:20;100243.33;;;25.68;29.54
37291;BME280;23175;-33.706;151.094;2022-12-26T08:41:50;100245.62;;;21.27;35.26
37291;BME280;23175;-33.706;151.094;2022-12-26T08:44:20;100251.09;;;24.47;31.83
37291;BME280;23175;-33.706;151.094;2022-12-26T08:46:50;100255.05;;;22.19;34.49
37291;BME280;23175;-33.706;151.094;2022-12-26T08:49:20;100257.01;;;20.86;35.77
37291;BME280;23175;-33.706;151.094;2022-12-26T08:51:50;100255.55;;;23.45;32.98
37291;BME280;23175;-33.706;151.094;2022-12-26T08:54:20;100257.90;;;23.71;32.27
37291;BME280;23175;-33.706;151.094;2022-12-26T08:56:50;100256.98;;;20.52;37.54
37291;BME280;23175;-33.706;151.094;2022-12-26T08:59:20;100256.11;;;22.59;35.13
37291;BME280;23175;-33.706;151.094;2022-12-26T09:01:50;100259.27;;;20.41;38.37
37291;BME280;23175;-33.706;151.094;2022-12-26T09:04:20;100262.44;;;22.04;36.35
37291;BME280;23175;-33.706;151.094;2022-12-26T09:06:50;100268.43;;;19.23;40.86
37291;BME280;23175;-33.706;151.094;2022-12-26T09:09:20;100269.37;;;20.92;39.30
37291;BME280;23175;-33.706;151.094;2022-12-26T09:11:50;100275.99;;;20.63;39.84
37291;BME280;23175;-33.706;151.094;2022-12-26T09:14:20;100274.83;;;20.13;40.99
37291;BME280;23175;-33.706;151.094;2022-12-26T09:16:50;100279.32;;;22.58;37.92
37291;BME280;23175;-33.706;151.094;2022-12-26T09:19:21;100278.14;;;21.37;39.52
37291;BME280;23175;-33.706;151.094;2022-12-26T09:21:51;100278.88;;;22.95;36.64
37291;BME280;23175;-33.706;151.094;2022-12-26T09:24:21;100285.19;;;21.36;38.71
37291;BME280;23175;-33.706;151.094;2022-12-26T09:26:51;100287.67;;;22.30;37.28
37291;BME280;23175;-33.706;151.094;2022-12-26T09:29:21;100288.58;;;24.21;34.95
37291;BME280;23175;-33.706;151.094;2022-12-26T09:31:51;100291.47;;;23.62;35.51
37291;BME280;23175;-33.706;151.094;2022-12-26T09:34:23;100293.43;;;23.70;35.37
37291;BME280;23175;-33.706;151.094;2022-12-26T09:36:53;100292.87;;;24.19;35.17
37291;BME280;23175;-33.706;151.094;2022-12-26T09:39:23;100292.30;;;22.09;37.71
37291;BME280;23175;-33.706;151.094;2022-12-26T09:42:02;100290.97;;;23.27;36.58
37291;BME280;23175;-33.706;151.094;2022-12-26T09:44:42;100295.47;;;24.89;35.55
37291;BME280;23175;-33.706;151.094;2022-12-26T09:47:25;100299.70;;;24.83;35.51
37291;BME280;23175;-33.706;151.094;2022-12-26T09:50:03;100304.43;;;23.29;37.53
37291;BME280;23175;-33.706;151.094;2022-12-26T09:52:40;100302.36;;;24.50;35.36
37291;BME280;23175;-33.706;151.094;2022-12-26T09:55:31;100302.14;;;25.80;34.39
37291;BME280;23175;-33.706;151.094;2022-12-26T09:58:13;100305.24;;;23.98;36.54
37291;BME280;23175;-33.706;151.094;2022-12-26T10:00:52;100312.96;;;25.28;35.40
37291;BME280;23175;-33.706;151.094;2022-12-26T10:03:24;100320.49;;;25.85;34.58
37291;BME280;23175;-33.706;151.094;2022-12-26T10:06:08;100321.16;;;24.94;36.10
37291;BME280;23175;-33.706;151.094;2022-12-26T10:08:59;100322.03;;;19.31;43.26
37291;BME280;23175;-33.706;151.094;2022-12-26T10:11:40;100320.71;;;23.40;38.12
37291;BME280;23175;-33.706;151.094;2022-12-26T10:14:19;100322.04;;;24.44;37.66
37291;BME280;23175;-33.706;151.094;2022-12-26T10:16:55;100327.61;;;22.98;38.82
37291;BME280;23175;-33.706;151.094;2022-12-26T10:19:40;100332.22;;;25.15;36.22
37291;BME280;23175;-33.706;151.094;2022-12-26T10:22:34;100334.60;;;24.49;36.94
37291;BME280;23175;-33.706;151.094;2022-12-26T10:25:16;100342.00;;;20.48;42.41
37291;BME280;23175;-33.706;151.094;2022-12-26T10:27:49;100344.61;;;16.52;50.93
37291;BME280;23175;-33.706;151.094;2022-12-26T10:30:22;100351.50;;;21.98;43.10
37291;BME280;23175;-33.706;151.094;2022-12-26T10:32:56;100356.23;;;21.69;43.31
37291;BME280;23175;-33.706;151.094;2022-12-26T10:35:32;100357.90;;;18.24;48.04
37291;BME280;23175;-33.706;151.094;2022-12-26T10:38:12;100362.29;;;20.77;45.67
37291;BME280;23175;-33.706;151.094;2022-12-26T10:40:46;100358.41;;;19.60;47.72
37291;BME280;23175;-33.706;151.094;2022-12-26T10:43:24;100361.96;;;22.79;42.72
37291;BME280;23175;-33.706;151.094;2022-12-26T10:46:16;100366.07;;;22.43;43.35
37291;BME280;23175;-33.706;151.094;2022-12-26T10:48:53;100363.49;;;23.43;41.00
37291;BME280;23175;-33.706;151.094;2022-12-26T10:51:24;100368.89;;;21.59;42.70
37291;BME280;23175;-33.706;151.094;2022-12-26T10:53:55;100370.39;;;23.74;40.66
37291;BME280;23175;-33.706;151.094;2022-12-26T10:56:26;100371.63;;;22.92;41.22
37291;BME280;23175;-33.706;151.094;2022-12-26T10:59:02;100372.32;;;22.07;41.96
37291;BME280;23175;-33.706;151.094;2022-12-26T11:01:36;100376.72;;;20.32;44.37
37291;BME280;23175;-33.706;151.094;2022-12-26T11:04:14;100379.05;;;23.09;41.04
37291;BME280;23175;-33.706;151.094;2022-12-26T11:06:44;100379.73;;;23.79;39.46
37291;BME280;23175;-33.706;151.094;2022-12-26T11:09:30;100379.18;;;23.97;39.25
37291;BME280;23175;-33.706;151.094;2022-12-26T11:12:02;100378.95;;;21.97;42.02
37291;BME280;23175;-33.706;151.094;2022-12-26T11:14:36;100378.85;;;21.25;42.89
37291;BME280;23175;-33.706;151.094;2022-12-26T11:17:10;100379.27;;;20.34;44.85
37291;BME280;23175;-33.706;151.094;2022-12-26T11:19:42;100381.24;;;23.63;40.32
37291;BME280;23175;-33.706;151.094;2022-12-26T11:22:23;100382.89;;;24.14;39.42
37291;BME280;23175;-33.706;151.094;2022-12-26T11:25:27;100380.71;;;22.45;41.60
37291;BME280;23175;-33.706;151.094;2022-12-26T11:27:57;100382.79;;;22.88;41.21
37291;BME280;23175;-33.706;151.094;2022-12-26T11:30:30;100383.72;;;20.68;44.23
37291;BME280;23175;-33.706;151.094;2022-12-26T11:33:19;100384.46;;;22.31;42.60
37291;BME280;23175;-33.706;151.094;2022-12-26T11:35:54;100382.88;;;19.71;46.66
37291;BME280;23175;-33.706;151.094;2022-12-26T11:38:27;100383.48;;;19.38;47.02
37291;BME280;23175;-33.706;151.094;2022-12-26T11:40:58;100386.20;;;22.07;43.23
37291;BME280;23175;-33.706;151.094;2022-12-26T11:43:28;100382.52;;;20.78;45.19
37291;BME280;23175;-33.706;151.094;2022-12-26T11:45:59;100382.35;;;22.79;42.21
37291;BME280;23175;-33.706;151.094;2022-12-26T11:48:30;100383.27;;;20.93;44.99
37291;BME280;23175;-33.706;151.094;2022-12-26T11:50:59;100381.12;;;20.31;46.31
37291;BME280;23175;-33.706;151.094;2022-12-26T11:53:30;100384.77;;;22.18;43.83
37291;BME280;23175;-33.706;151.094;2022-12-26T11:56:02;100382.26;;;22.83;42.47
37291;BME280;23175;-33.706;151.094;2022-12-26T11:58:34;100380.19;;;20.97;45.07
37291;BME280;23175;-33.706;151.094;2022-12-26T12:01:09;100377.31;;;20.93;45.72
37291;BME280;23175;-33.706;151.094;2022-12-26T12:03:42;100373.21;;;19.70;47.44
37291;BME280;23175;-33.706;151.094;2022-12-26T12:06:25;100378.94;;;22.23;44.35
37291;BME280;23175;-33.706;151.094;2022-12-26T12:09:07;100380.39;;;17.91;51.39
37291;BME280;23175;-33.706;151.094;2022-12-26T12:11:47;100379.86;;;21.00;47.13
37291;BME280;23175;-33.706;151.094;2022-12-26T12:14:32;100382.76;;;18.86;50.82
37291;BME280;23175;-33.706;151.094;2022-12-26T12:17:18;100383.16;;;20.80;47.81
37291;BME280;23175;-33.706;151.094;2022-12-26T12:20:00;100385.89;;;22.24;45.46
37291;BME280;23175;-33.706;151.094;2022-12-26T12:22:54;100384.96;;;20.56;48.46
37291;BME280;23175;-33.706;151.094;2022-12-26T12:25:50;100385.54;;;22.39;45.56
37291;BME280;23175;-33.706;151.094;2022-12-26T12:28:52;100380.01;;;21.60;46.69
37291;BME280;23175;-33.706;151.094;2022-12-26T12:31:35;100380.33;;;21.14;47.05
37291;BME280;23175;-33.706;151.094;2022-12-26T12:34:15;100384.36;;;21.61;47.36
37291;BME280;23175;-33.706;151.094;2022-12-26T12:37:03;100386.71;;;21.70;46.41
37291;BME280;23175;-33.706;151.094;2022-12-26T12:39:47;100388.80;;;21.76;47.20
37291;BME280;23175;-33.706;151.094;2022-12-26T12:42:30;100393.96;;;22.73;45.19
37291;BME280;23175;-33.706;151.094;2022-12-26T12:45:21;100396.19;;;22.51;45.68
37291;BME280;23175;-33.706;151.094;2022-12-26T12:48:03;100399.00;;;21.67;46.30
37291;BME280;23175;-33.706;151.094;2022-12-26T12:50:41;100398.62;;;22.07;45.75
37291;BME280;23175;-33.706;151.094;2022-12-26T12:53:22;100405.09;;;23.19;44.38
37291;BME280;23175;-33.706;151.094;2022-12-26T12:56:08;100408.77;;;20.22;48.35